createdAt,value
2022-08-20T00:02:15.780Z,6.38
2022-08-20T00:04:44.876Z,6.55
2022-08-20T00:07:15.494Z,7.30
2022-08-20T00:09:45.733Z,7.07
2022-08-20T00:12:18.270Z,7.32
2022-08-20T00:14:46.730Z,7.40
2022-08-20T00:17:17.326Z,7.35
2022-08-20T00:19:46.069Z,7.57
2022-08-20T00:22:14.966Z,6.63
2022-08-20T00:24:47.034Z,7.47
2022-08-20T00:27:15.235Z,7.45
2022-08-20T00:29:44.825Z,8.35
2022-08-20T00:32:13.070Z,8.20
2022-08-20T00:34:42.871Z,8.57
2022-08-20T00:37:11.887Z,8.68
2022-08-20T00:39:41.128Z,8.38
2022-08-20T00:42:09.670Z,7.88
2022-08-20T00:44:44.189Z,8.60
2022-08-20T00:47:12.391Z,8.43
2022-08-20T00:49:40.965Z,8.35
2022-08-20T00:52:16.599Z,8.40
2022-08-20T00:54:49.599Z,9.05
2022-08-20T00:57:24.168Z,8.93
2022-08-20T00:59:54.005Z,9.65
2022-08-20T01:02:25.816Z,9.55
2022-08-20T01:04:55.644Z,9.50
2022-08-20T01:07:33.361Z,10.00
2022-08-20T01:10:07.166Z,10.20
2022-08-20T01:12:36.275Z,11.02
2022-08-20T01:15:05.729Z,10.75
2022-08-20T01:17:37.454Z,9.93
2022-08-20T01:20:11.611Z,10.40
2022-08-20T01:23:14.721Z,9.75
2022-08-20T01:25:48.479Z,9.38
2022-08-20T01:28:20.049Z,9.38
2022-08-20T01:30:48.769Z,8.23
2022-08-20T01:33:19.180Z,8.40
2022-08-20T01:35:47.850Z,8.10
2022-08-20T01:38:16.594Z,7.93
2022-08-20T01:40:52.444Z,8.05
2022-08-20T01:43:22.055Z,8.35
2022-08-20T01:45:53.325Z,7.40
2022-08-20T01:48:23.060Z,7.57
2022-08-20T01:51:14.318Z,7.20
2022-08-20T01:53:47.055Z,7.07
2022-08-20T01:56:20.155Z,7.78
2022-08-20T01:58:55.944Z,7.25
2022-08-20T02:01:46.013Z,7.13
2022-08-20T02:04:17.375Z,7.18
2022-08-20T02:06:56.216Z,7.20
2022-08-20T02:09:27.957Z,7.28
2022-08-20T02:11:58.224Z,7.10
2022-08-20T02:14:28.083Z,7.05
2022-08-20T02:16:58.984Z,7.10
2022-08-20T02:19:32.904Z,6.85
2022-08-20T02:22:07.649Z,6.78
2022-08-20T02:24:36.069Z,6.90
2022-08-20T02:27:04.579Z,6.45
2022-08-20T02:29:33.134Z,6.78
2022-08-20T02:32:24.490Z,7.25
2022-08-20T02:34:50.219Z,7.03
2022-08-20T02:37:18.959Z,7.35
2022-08-20T02:39:48.009Z,7.40
2022-08-20T02:42:17.166Z,6.95
2022-08-20T02:44:45.455Z,7.07
2022-08-20T02:47:13.679Z,7.38
2022-08-20T02:49:41.666Z,6.93
2022-08-20T02:52:10.016Z,7.28
2022-08-20T02:54:38.298Z,7.50
2022-08-20T02:57:12.154Z,6.97
2022-08-20T02:59:40.562Z,7.00
2022-08-20T03:02:08.829Z,7.30
2022-08-20T03:04:37.592Z,7.18
2022-08-20T03:07:07.180Z,6.85
2022-08-20T03:09:35.255Z,6.78
2022-08-20T03:12:05.476Z,6.78
2022-08-20T03:14:34.959Z,7.35
2022-08-20T03:17:03.130Z,7.43
2022-08-20T03:19:31.339Z,7.22
2022-08-20T03:21:59.954Z,7.00
2022-08-20T03:24:28.111Z,7.22
2022-08-20T03:26:56.720Z,7.05
2022-08-20T03:29:25.144Z,8.52
2022-08-20T03:31:53.915Z,7.80
2022-08-20T03:34:22.425Z,8.65
2022-08-20T03:36:50.621Z,8.57
2022-08-20T03:39:19.455Z,8.70
2022-08-20T03:41:48.295Z,8.60
2022-08-20T03:44:16.529Z,9.07
2022-08-20T03:46:45.287Z,9.23
2022-08-20T03:49:14.124Z,9.02
2022-08-20T03:51:56.209Z,8.73
2022-08-20T03:54:31.776Z,8.70
2022-08-20T03:57:03.786Z,10.80
2022-08-20T03:59:42.408Z,11.18
2022-08-20T04:02:12.820Z,10.93
2022-08-20T04:04:41.865Z,10.65
2022-08-20T04:07:13.668Z,11.00
2022-08-20T04:09:42.384Z,11.68
2022-08-20T04:12:14.394Z,11.90
2022-08-20T04:14:43.361Z,11.73
2022-08-20T04:17:14.985Z,12.57
2022-08-20T04:19:45.184Z,12.98
2022-08-20T04:22:16.780Z,11.77
2022-08-20T04:24:45.099Z,11.13
2022-08-20T04:27:15.459Z,11.57
2022-08-20T04:29:45.219Z,11.65
2022-08-20T04:32:13.860Z,13.15
2022-08-20T04:34:42.101Z,12.95
2022-08-20T04:37:16.932Z,13.07
2022-08-20T04:39:46.321Z,15.13
2022-08-20T04:42:15.101Z,14.18
2022-08-20T04:44:43.780Z,14.38
2022-08-20T04:47:12.605Z,14.45
2022-08-20T04:49:40.972Z,14.85
2022-08-20T04:52:11.604Z,15.05
2022-08-20T04:54:39.965Z,13.82
2022-08-20T04:57:08.085Z,15.07
2022-08-20T04:59:37.807Z,13.65
2022-08-20T05:02:08.090Z,15.45
2022-08-20T05:04:38.484Z,15.82
2022-08-20T05:07:07.409Z,16.50
2022-08-20T05:09:44.074Z,16.38
2022-08-20T05:12:15.819Z,17.15
2022-08-20T05:14:44.574Z,17.40
2022-08-20T05:17:15.455Z,18.40
2022-08-20T05:19:44.731Z,17.75
2022-08-20T05:22:12.980Z,18.67
2022-08-20T05:24:42.699Z,17.17
2022-08-20T05:27:14.236Z,16.55
2022-08-20T05:29:55.615Z,16.98
2022-08-20T05:32:24.799Z,16.75
2022-08-20T19:11:03.929Z,1.67
2022-08-20T19:13:51.540Z,1.65
2022-08-20T19:16:27.798Z,1.48
2022-08-20T19:21:33.195Z,1.20
2022-08-20T19:24:07.185Z,1.48
2022-08-20T19:27:05.281Z,1.75
2022-08-20T19:29:36.454Z,1.98
2022-08-20T19:32:09.533Z,1.50
2022-08-20T19:34:38.454Z,1.60
2022-08-20T19:37:35.434Z,1.30
2022-08-20T19:40:07.793Z,1.35
2022-08-20T19:42:43.739Z,1.27
2022-08-20T19:45:24.939Z,1.80
2022-08-20T19:48:27.068Z,1.50
2022-08-20T19:51:07.514Z,1.88
2022-08-20T19:53:37.929Z,1.80
2022-08-20T19:56:22.725Z,1.60
2022-08-20T19:59:06.440Z,1.67
2022-08-20T20:01:35.929Z,1.52
2022-08-20T20:04:08.060Z,1.65
2022-08-20T20:06:42.499Z,1.65
2022-08-20T20:09:29.263Z,1.70
2022-08-20T20:12:03.521Z,1.90
2022-08-20T20:14:37.098Z,2.00
2022-08-20T20:17:14.471Z,1.60
2022-08-20T20:19:57.941Z,1.88
2022-08-20T20:22:36.749Z,1.50
2022-08-20T20:25:20.269Z,1.80
2022-08-20T20:27:52.461Z,1.92
2022-08-20T20:30:33.039Z,2.97
2022-08-20T20:33:12.149Z,2.70
2022-08-20T20:35:40.949Z,2.75
2022-08-20T20:38:13.769Z,2.90
2022-08-20T20:40:48.419Z,3.08
2022-08-20T20:43:33.982Z,2.42
2022-08-20T20:46:16.850Z,2.42
2022-08-20T20:48:52.858Z,2.80
2022-08-20T20:51:43.037Z,2.72
2022-08-20T20:54:44.492Z,2.47
2022-08-20T20:57:18.885Z,2.33
2022-08-20T21:00:01.063Z,2.65
2022-08-20T21:02:29.216Z,2.50
2022-08-20T21:04:59.090Z,2.42
2022-08-20T21:07:27.529Z,2.63
2022-08-20T21:09:57.535Z,2.55
2022-08-20T21:12:26.075Z,2.97
2022-08-20T21:14:54.580Z,2.75
2022-08-20T21:17:23.389Z,2.90
2022-08-20T21:19:52.654Z,3.17
2022-08-20T21:22:21.695Z,3.30
2022-08-20T21:24:52.039Z,3.50
2022-08-20T21:27:24.010Z,3.90
2022-08-20T21:29:53.619Z,3.40
2022-08-20T21:32:22.725Z,3.70
2022-08-20T21:34:52.099Z,3.72
2022-08-20T21:37:20.730Z,3.40
2022-08-20T21:39:49.605Z,3.75
2022-08-20T21:42:29.398Z,3.42
2022-08-20T21:44:59.656Z,3.13
2022-08-20T21:47:28.439Z,3.05
2022-08-20T21:49:57.159Z,3.47
2022-08-20T21:52:25.955Z,3.20
2022-08-20T21:54:54.646Z,3.33
2022-08-20T21:57:33.941Z,3.20
2022-08-20T22:00:10.434Z,3.03
2022-08-20T22:02:38.700Z,3.40
2022-08-20T22:05:07.901Z,3.30
2022-08-20T22:07:36.825Z,3.15
2022-08-20T22:10:05.915Z,3.70
2022-08-20T22:12:34.729Z,3.20
2022-08-20T22:15:03.771Z,3.08
2022-08-20T22:17:32.505Z,3.42
2022-08-20T22:20:01.074Z,3.70
2022-08-20T22:22:29.897Z,3.50
2022-08-20T22:24:58.590Z,3.67
2022-08-20T22:27:26.739Z,4.10
2022-08-20T22:29:56.072Z,3.55
2022-08-20T22:32:34.366Z,3.70
2022-08-20T22:35:13.520Z,3.58
2022-08-20T22:37:42.064Z,4.20
2022-08-20T22:40:11.946Z,3.88
2022-08-20T22:42:40.663Z,3.75
2022-08-20T22:45:12.319Z,4.13
2022-08-20T22:47:44.118Z,4.40
2022-08-20T22:50:14.613Z,4.18
2022-08-20T22:52:44.293Z,4.45
2022-08-20T22:55:13.658Z,4.00
2022-08-20T22:57:42.553Z,3.90
2022-08-20T23:00:14.879Z,4.55
2022-08-20T23:02:45.559Z,4.22
2022-08-20T23:05:17.449Z,4.47
2022-08-20T23:07:47.864Z,4.47
2022-08-20T23:10:19.710Z,4.63
2022-08-20T23:12:48.684Z,4.93
2022-08-20T23:15:17.628Z,4.28
2022-08-20T23:17:46.624Z,4.50
2022-08-20T23:20:17.780Z,4.25
2022-08-20T23:22:46.409Z,4.57
2022-08-20T23:25:15.060Z,4.53
2022-08-20T23:27:49.283Z,4.47
2022-08-20T23:30:20.460Z,4.97
2022-08-20T23:32:49.328Z,4.60
2022-08-20T23:35:18.634Z,4.80
2022-08-20T23:37:51.578Z,5.05
2022-08-20T23:40:28.109Z,5.00
2022-08-20T23:42:58.798Z,4.88
2022-08-20T23:45:28.529Z,4.78
2022-08-20T23:47:57.119Z,4.75
2022-08-20T23:50:29.290Z,4.50
2022-08-20T23:52:59.029Z,4.10
2022-08-20T23:55:27.833Z,4.20
2022-08-20T23:57:56.536Z,3.92
